sensor_id;sensor_type;location;lat;lon;timestamp;temperature;humidity
7572;DHT22;3827;49.928;8.548;2023-09-19T00:00:21;16.50;99.90
7572;DHT22;3827;49.928;8.548;2023-09-19T00:02:54;16.50;99.90
7572;DHT22;3827;49.928;8.548;2023-09-19T00:05:22;16.50;99.90
7572;DHT22;3827;49.928;8.548;2023-09-19T00:07:53;16.60;99.90
7572;DHT22;3827;49.928;8.548;2023-09-19T00:10:20;16.60;99.90
7572;DHT22;3827;49.928;8.548;2023-09-19T00:12:50;16.60;99.90
7572;DHT22;3827;49.928;8.548;2023-09-19T00:15:17;16.70;99.90
7572;DHT22;3827;49.928;8.548;2023-09-19T00:17:45;16.70;99.90
7572;DHT22;3827;49.928;8.548;2023-09-19T00:20:13;16.70;99.90
7572;DHT22;3827;49.928;8.548;2023-09-19T00:22:43;16.70;99.90
7572;DHT22;3827;49.928;8.548;2023-09-19T00:25:10;16.80;99.90
7572;DHT22;3827;49.928;8.548;2023-09-19T00:27:38;16.80;99.90
7572;DHT22;3827;49.928;8.548;2023-09-19T00:30:08;16.80;99.90
7572;DHT22;3827;49.928;8.548;2023-09-19T00:32:40;16.80;99.90
7572;DHT22;3827;49.928;8.548;2023-09-19T00:35:08;16.80;99.90
7572;DHT22;3827;49.928;8.548;2023-09-19T00:37:36;16.80;99.90
7572;DHT22;3827;49.928;8.548;2023-09-19T00:40:03;16.80;99.90
7572;DHT22;3827;49.928;8.548;2023-09-19T00:42:31;16.80;99.90
7572;DHT22;3827;49.928;8.548;2023-09-19T00:44:59;16.80;99.90
7572;DHT22;3827;49.928;8.548;2023-09-19T00:47:29;16.90;99.90
7572;DHT22;3827;49.928;8.548;2023-09-19T00:49:56;16.80;99.90
7572;DHT22;3827;49.928;8.548;2023-09-19T00:52:25;16.80;99.90
7572;DHT22;3827;49.928;8.548;2023-09-19T00:54:53;16.80;99.90
7572;DHT22;3827;49.928;8.548;2023-09-19T00:57:20;16.80;99.90
7572;DHT22;3827;49.928;8.548;2023-09-19T00:59:48;16.80;99.90
7572;DHT22;3827;49.928;8.548;2023-09-19T01:02:16;16.80;99.90
7572;DHT22;3827;49.928;8.548;2023-09-19T01:04:43;16.70;99.90
7572;DHT22;3827;49.928;8.548;2023-09-19T01:07:11;16.70;99.90
7572;DHT22;3827;49.928;8.548;2023-09-19T01:09:39;16.70;99.90
7572;DHT22;3827;49.928;8.548;2023-09-19T01:12:07;16.80;99.90
7572;DHT22;3827;49.928;8.548;2023-09-19T01:14:41;16.70;99.90
7572;DHT22;3827;49.928;8.548;2023-09-19T01:17:14;16.80;99.90
7572;DHT22;3827;49.928;8.548;2023-09-19T01:20:07;16.80;99.90
7572;DHT22;3827;49.928;8.548;2023-09-19T01:22:46;16.80;99.90
7572;DHT22;3827;49.928;8.548;2023-09-19T01:25:57;16.80;99.90
7572;DHT22;3827;49.928;8.548;2023-09-19T01:28:32;16.70;99.90
7572;DHT22;3827;49.928;8.548;2023-09-19T01:31:04;16.80;99.90
7572;DHT22;3827;49.928;8.548;2023-09-19T01:33:59;16.80;99.90
7572;DHT22;3827;49.928;8.548;2023-09-19T01:36:30;16.80;99.90
7572;DHT22;3827;49.928;8.548;2023-09-19T01:39:00;16.80;99.90
7572;DHT22;3827;49.928;8.548;2023-09-19T01:41:45;16.80;99.90
7572;DHT22;3827;49.928;8.548;2023-09-19T01:44:21;16.80;99.90
7572;DHT22;3827;49.928;8.548;2023-09-19T01:46:50;16.80;99.90
7572;DHT22;3827;49.928;8.548;2023-09-19T01:49:25;16.80;99.90
7572;DHT22;3827;49.928;8.548;2023-09-19T01:52:02;16.70;99.90
7572;DHT22;3827;49.928;8.548;2023-09-19T01:54:33;16.70;99.90
7572;DHT22;3827;49.928;8.548;2023-09-19T01:57:07;16.60;99.90
7572;DHT22;3827;49.928;8.548;2023-09-19T01:59:40;16.60;99.90
7572;DHT22;3827;49.928;8.548;2023-09-19T02:02:12;16.60;99.90
7572;DHT22;3827;49.928;8.548;2023-09-19T02:04:40;16.50;99.90
7572;DHT22;3827;49.928;8.548;2023-09-19T02:07:07;16.50;99.90
7572;DHT22;3827;49.928;8.548;2023-09-19T02:09:34;16.50;99.90
7572;DHT22;3827;49.928;8.548;2023-09-19T02:12:04;16.40;99.90
7572;DHT22;3827;49.928;8.548;2023-09-19T02:14:31;16.40;99.90
7572;DHT22;3827;49.928;8.548;2023-09-19T02:16:58;16.40;99.90
7572;DHT22;3827;49.928;8.548;2023-09-19T02:19:27;16.30;99.90
7572;DHT22;3827;49.928;8.548;2023-09-19T02:21:55;16.30;99.90
7572;DHT22;3827;49.928;8.548;2023-09-19T02:24:22;16.30;99.90
7572;DHT22;3827;49.928;8.548;2023-09-19T02:26:52;16.20;99.90
7572;DHT22;3827;49.928;8.548;2023-09-19T02:29:20;16.10;99.90
7572;DHT22;3827;49.928;8.548;2023-09-19T02:31:47;16.10;99.90
7572;DHT22;3827;49.928;8.548;2023-09-19T02:34:14;16.10;99.90
7572;DHT22;3827;49.928;8.548;2023-09-19T02:36:43;16.10;99.90
7572;DHT22;3827;49.928;8.548;2023-09-19T02:39:10;16.10;99.90
7572;DHT22;3827;49.928;8.548;2023-09-19T02:41:38;16.00;99.90
7572;DHT22;3827;49.928;8.548;2023-09-19T02:44:07;16.00;99.90
7572;DHT22;3827;49.928;8.548;2023-09-19T02:46:34;16.00;99.90
7572;DHT22;3827;49.928;8.548;2023-09-19T02:49:02;16.00;99.90
7572;DHT22;3827;49.928;8.548;2023-09-19T02:51:30;15.90;99.90
7572;DHT22;3827;49.928;8.548;2023-09-19T02:53:59;16.00;99.90
7572;DHT22;3827;49.928;8.548;2023-09-19T02:56:26;15.90;99.90
7572;DHT22;3827;49.928;8.548;2023-09-19T02:58:53;15.80;99.90
7572;DHT22;3827;49.928;8.548;2023-09-19T03:01:20;15.80;99.90
7572;DHT22;3827;49.928;8.548;2023-09-19T03:03:47;15.80;99.90
7572;DHT22;3827;49.928;8.548;2023-09-19T03:06:14;15.70;99.90
7572;DHT22;3827;49.928;8.548;2023-09-19T03:08:45;15.70;99.90
7572;DHT22;3827;49.928;8.548;2023-09-19T03:11:15;18.40;99.90
7572;DHT22;3827;49.928;8.548;2023-09-19T03:13:50;15.70;99.90
7572;DHT22;3827;49.928;8.548;2023-09-19T03:16:16;15.70;99.90
7572;DHT22;3827;49.928;8.548;2023-09-19T03:18:44;15.70;99.90
7572;DHT22;3827;49.928;8.548;2023-09-19T03:21:12;15.90;99.90
7572;DHT22;3827;49.928;8.548;2023-09-19T03:23:40;15.60;99.90
7572;DHT22;3827;49.928;8.548;2023-09-19T03:26:06;15.60;99.90
7572;DHT22;3827;49.928;8.548;2023-09-19T03:28:35;15.50;99.90
7572;DHT22;3827;49.928;8.548;2023-09-19T03:31:03;15.50;99.90
7572;DHT22;3827;49.928;8.548;2023-09-19T03:33:30;15.40;99.90
7572;DHT22;3827;49.928;8.548;2023-09-19T03:35:58;15.50;99.90
7572;DHT22;3827;49.928;8.548;2023-09-19T03:38:26;15.40;99.90
7572;DHT22;3827;49.928;8.548;2023-09-19T03:40:54;15.40;99.90
7572;DHT22;3827;49.928;8.548;2023-09-19T03:43:21;15.30;99.90
7572;DHT22;3827;49.928;8.548;2023-09-19T03:45:49;15.30;99.90
7572;DHT22;3827;49.928;8.548;2023-09-19T03:48:16;15.20;99.90
7572;DHT22;3827;49.928;8.548;2023-09-19T03:50:43;15.20;99.90
7572;DHT22;3827;49.928;8.548;2023-09-19T03:53:10;15.30;99.90
7572;DHT22;3827;49.928;8.548;2023-09-19T03:55:37;15.10;99.90
7572;DHT22;3827;49.928;8.548;2023-09-19T03:58:04;15.30;99.90
7572;DHT22;3827;49.928;8.548;2023-09-19T04:00:31;15.10;99.90
7572;DHT22;3827;49.928;8.548;2023-09-19T04:03:00;15.10;99.90
7572;DHT22;3827;49.928;8.548;2023-09-19T04:05:31;15.60;99.90
7572;DHT22;3827;49.928;8.548;2023-09-19T04:07:57;15.00;99.90
7572;DHT22;3827;49.928;8.548;2023-09-19T04:10:24;15.00;99.90
7572;DHT22;3827;49.928;8.548;2023-09-19T04:12:51;15.00;99.90
7572;DHT22;3827;49.928;8.548;2023-09-19T04:15:18;15.00;99.90
7572;DHT22;3827;49.928;8.548;2023-09-19T04:17:47;15.00;99.90
7572;DHT22;3827;49.928;8.548;2023-09-19T04:20:16;15.00;99.90
7572;DHT22;3827;49.928;8.548;2023-09-19T04:22:44;15.10;99.90
7572;DHT22;3827;49.928;8.548;2023-09-19T04:25:10;15.20;99.90
7572;DHT22;3827;49.928;8.548;2023-09-19T04:27:37;15.20;99.90
7572;DHT22;3827;49.928;8.548;2023-09-19T04:30:06;15.20;99.90
7572;DHT22;3827;49.928;8.548;2023-09-19T04:32:37;15.30;99.90
7572;DHT22;3827;49.928;8.548;2023-09-19T04:35:05;17.70;99.90
7572;DHT22;3827;49.928;8.548;2023-09-19T04:37:38;15.40;99.90
7572;DHT22;3827;49.928;8.548;2023-09-19T04:40:07;15.40;99.90
7572;DHT22;3827;49.928;8.548;2023-09-19T04:42:39;15.50;99.90
7572;DHT22;3827;49.928;8.548;2023-09-19T04:45:07;15.50;99.90
7572;DHT22;3827;49.928;8.548;2023-09-19T04:47:36;15.60;99.90
7572;DHT22;3827;49.928;8.548;2023-09-19T04:50:05;15.60;99.90
7572;DHT22;3827;49.928;8.548;2023-09-19T04:52:32;15.60;99.90
7572;DHT22;3827;49.928;8.548;2023-09-19T04:55:01;15.60;99.90
7572;DHT22;3827;49.928;8.548;2023-09-19T04:57:28;15.70;99.90
7572;DHT22;3827;49.928;8.548;2023-09-19T04:59:54;15.70;99.90
7572;DHT22;3827;49.928;8.548;2023-09-19T05:02:21;15.70;99.90
7572;DHT22;3827;49.928;8.548;2023-09-19T05:04:48;15.80;99.90
7572;DHT22;3827;49.928;8.548;2023-09-19T05:07:15;15.80;99.90
7572;DHT22;3827;49.928;8.548;2023-09-19T05:09:42;15.90;99.90
7572;DHT22;3827;49.928;8.548;2023-09-19T05:12:10;15.90;99.90
7572;DHT22;3827;49.928;8.548;2023-09-19T05:14:37;15.90;99.90
7572;DHT22;3827;49.928;8.548;2023-09-19T05:17:06;15.90;99.90
7572;DHT22;3827;49.928;8.548;2023-09-19T05:19:33;16.00;99.90
7572;DHT22;3827;49.928;8.548;2023-09-19T05:22:00;16.00;99.90
7572;DHT22;3827;49.928;8.548;2023-09-19T05:24:29;15.90;99.90
7572;DHT22;3827;49.928;8.548;2023-09-19T05:26:56;15.90;99.90
7572;DHT22;3827;49.928;8.548;2023-09-19T05:29:24;15.80;99.90
7572;DHT22;3827;49.928;8.548;2023-09-19T05:31:51;15.80;99.90
7572;DHT22;3827;49.928;8.548;2023-09-19T05:34:20;15.80;99.90
7572;DHT22;3827;49.928;8.548;2023-09-19T05:36:47;15.70;99.90
7572;DHT22;3827;49.928;8.548;2023-09-19T05:39:14;15.70;99.90
7572;DHT22;3827;49.928;8.548;2023-09-19T05:41:41;15.70;99.90
7572;DHT22;3827;49.928;8.548;2023-09-19T05:44:08;15.70;99.90
7572;DHT22;3827;49.928;8.548;2023-09-19T05:46:36;15.70;99.90
7572;DHT22;3827;49.928;8.548;2023-09-19T05:49:03;15.70;99.90
7572;DHT22;3827;49.928;8.548;2023-09-19T05:51:29;15.70;99.90
7572;DHT22;3827;49.928;8.548;2023-09-19T05:53:56;15.80;99.90
7572;DHT22;3827;49.928;8.548;2023-09-19T05:56:23;15.90;99.90
7572;DHT22;3827;49.928;8.548;2023-09-19T05:58:50;15.90;99.90
7572;DHT22;3827;49.928;8.548;2023-09-19T06:01:18;15.90;99.90
7572;DHT22;3827;49.928;8.548;2023-09-19T06:03:46;15.90;99.90
7572;DHT22;3827;49.928;8.548;2023-09-19T06:06:13;15.90;99.90
7572;DHT22;3827;49.928;8.548;2023-09-19T06:08:40;16.00;99.90
7572;DHT22;3827;49.928;8.548;2023-09-19T06:11:09;16.00;99.90
7572;DHT22;3827;49.928;8.548;2023-09-19T06:13:36;16.00;99.90
7572;DHT22;3827;49.928;8.548;2023-09-19T06:16:04;16.00;99.90
7572;DHT22;3827;49.928;8.548;2023-09-19T06:18:31;16.10;99.90
7572;DHT22;3827;49.928;8.548;2023-09-19T06:21:00;16.10;99.90
7572;DHT22;3827;49.928;8.548;2023-09-19T06:23:30;16.20;99.90
7572;DHT22;3827;49.928;8.548;2023-09-19T06:25:57;16.30;99.90
7572;DHT22;3827;49.928;8.548;2023-09-19T06:28:24;16.40;99.90
7572;DHT22;3827;49.928;8.548;2023-09-19T06:30:53;16.50;99.90
7572;DHT22;3827;49.928;8.548;2023-09-19T06:33:20;16.60;99.90
7572;DHT22;3827;49.928;8.548;2023-09-19T06:35:48;16.70;99.90
7572;DHT22;3827;49.928;8.548;2023-09-19T06:38:19;16.80;99.90
7572;DHT22;3827;49.928;8.548;2023-09-19T06:40:46;16.70;99.90
7572;DHT22;3827;49.928;8.548;2023-09-19T06:43:13;16.80;99.90
7572;DHT22;3827;49.928;8.548;2023-09-19T06:45:40;16.80;99.90
7572;DHT22;3827;49.928;8.548;2023-09-19T06:48:08;16.90;99.90
7572;DHT22;3827;49.928;8.548;2023-09-19T06:50:35;16.90;99.90
7572;DHT22;3827;49.928;8.548;2023-09-19T06:53:02;17.00;99.90
7572;DHT22;3827;49.928;8.548;2023-09-19T06:55:31;16.90;99.90
7572;DHT22;3827;49.928;8.548;2023-09-19T06:57:57;16.90;99.90
7572;DHT22;3827;49.928;8.548;2023-09-19T07:00:24;17.00;99.90
7572;DHT22;3827;49.928;8.548;2023-09-19T07:02:58;17.00;99.90
7572;DHT22;3827;49.928;8.548;2023-09-19T07:05:27;17.00;99.90
7572;DHT22;3827;49.928;8.548;2023-09-19T07:07:54;17.10;99.90
7572;DHT22;3827;49.928;8.548;2023-09-19T07:10:22;17.20;99.90
7572;DHT22;3827;49.928;8.548;2023-09-19T07:12:56;17.20;99.90
7572;DHT22;3827;49.928;8.548;2023-09-19T07:15:23;17.30;99.90
7572;DHT22;3827;49.928;8.548;2023-09-19T07:17:51;17.40;99.90
7572;DHT22;3827;49.928;8.548;2023-09-19T07:20:18;17.40;99.90
7572;DHT22;3827;49.928;8.548;2023-09-19T07:22:45;17.50;99.90
7572;DHT22;3827;49.928;8.548;2023-09-19T07:25:12;17.50;99.90
7572;DHT22;3827;49.928;8.548;2023-09-19T07:27:40;17.60;99.90
7572;DHT22;3827;49.928;8.548;2023-09-19T07:30:10;17.60;99.90
7572;DHT22;3827;49.928;8.548;2023-09-19T07:32:37;17.60;99.90
7572;DHT22;3827;49.928;8.548;2023-09-19T07:35:05;17.70;99.90
7572;DHT22;3827;49.928;8.548;2023-09-19T07:37:32;17.70;99.90
7572;DHT22;3827;49.928;8.548;2023-09-19T07:39:59;17.70;99.90
7572;DHT22;3827;49.928;8.548;2023-09-19T07:42:26;17.80;99.90
7572;DHT22;3827;49.928;8.548;2023-09-19T07:44:53;17.80;99.90
7572;DHT22;3827;49.928;8.548;2023-09-19T07:47:21;17.90;99.90
7572;DHT22;3827;49.928;8.548;2023-09-19T07:49:48;17.90;99.90
7572;DHT22;3827;49.928;8.548;2023-09-19T07:52:14;17.90;99.90
7572;DHT22;3827;49.928;8.548;2023-09-19T07:54:42;18.00;99.90
7572;DHT22;3827;49.928;8.548;2023-09-19T07:57:10;18.10;99.90
7572;DHT22;3827;49.928;8.548;2023-09-19T07:59:38;18.20;99.90
7572;DHT22;3827;49.928;8.548;2023-09-19T08:02:06;18.40;99.90
7572;DHT22;3827;49.928;8.548;2023-09-19T08:04:36;18.40;99.90
7572;DHT22;3827;49.928;8.548;2023-09-19T08:07:03;18.40;99.90
7572;DHT22;3827;49.928;8.548;2023-09-19T08:09:31;18.40;99.90
7572;DHT22;3827;49.928;8.548;2023-09-19T08:11:59;18.40;99.90
7572;DHT22;3827;49.928;8.548;2023-09-19T08:14:29;18.40;99.90
7572;DHT22;3827;49.928;8.548;2023-09-19T08:16:57;18.50;99.90
7572;DHT22;3827;49.928;8.548;2023-09-19T08:19:24;18.60;99.90
7572;DHT22;3827;49.928;8.548;2023-09-19T08:21:55;18.30;99.90
7572;DHT22;3827;49.928;8.548;2023-09-19T08:24:24;18.30;99.90
7572;DHT22;3827;49.928;8.548;2023-09-19T08:26:53;18.30;99.90
7572;DHT22;3827;49.928;8.548;2023-09-19T08:29:20;18.40;99.90
7572;DHT22;3827;49.928;8.548;2023-09-19T08:31:47;18.30;99.90
7572;DHT22;3827;49.928;8.548;2023-09-19T08:34:15;18.40;99.90
7572;DHT22;3827;49.928;8.548;2023-09-19T08:36:42;18.30;99.90
7572;DHT22;3827;49.928;8.548;2023-09-19T08:39:11;18.40;99.90
7572;DHT22;3827;49.928;8.548;2023-09-19T08:41:39;18.40;99.90
7572;DHT22;3827;49.928;8.548;2023-09-19T08:44:06;18.60;99.90
7572;DHT22;3827;49.928;8.548;2023-09-19T08:46:34;18.70;99.90
7572;DHT22;3827;49.928;8.548;2023-09-19T08:49:05;18.80;99.90
7572;DHT22;3827;49.928;8.548;2023-09-19T08:51:41;18.70;99.90
7572;DHT22;3827;49.928;8.548;2023-09-19T08:54:16;18.60;99.90
7572;DHT22;3827;49.928;8.548;2023-09-19T08:56:48;18.70;99.90
7572;DHT22;3827;49.928;8.548;2023-09-19T08:59:15;18.50;99.90
7572;DHT22;3827;49.928;8.548;2023-09-19T09:01:44;18.20;99.90
7572;DHT22;3827;49.928;8.548;2023-09-19T09:04:12;18.40;99.90
7572;DHT22;3827;49.928;8.548;2023-09-19T09:06:39;18.60;99.90
7572;DHT22;3827;49.928;8.548;2023-09-19T09:09:08;18.70;99.90
7572;DHT22;3827;49.928;8.548;2023-09-19T09:11:38;19.10;99.90
7572;DHT22;3827;49.928;8.548;2023-09-19T09:14:06;18.90;99.90
7572;DHT22;3827;49.928;8.548;2023-09-19T09:16:34;18.40;99.90
7572;DHT22;3827;49.928;8.548;2023-09-19T09:19:01;18.10;99.90
7572;DHT22;3827;49.928;8.548;2023-09-19T09:21:28;18.40;99.90
7572;DHT22;3827;49.928;8.548;2023-09-19T09:23:54;18.60;99.90
7572;DHT22;3827;49.928;8.548;2023-09-19T09:26:43;18.40;99.90
7572;DHT22;3827;49.928;8.548;2023-09-19T09:29:10;18.60;99.90
7572;DHT22;3827;49.928;8.548;2023-09-19T09:31:37;18.80;99.90
7572;DHT22;3827;49.928;8.548;2023-09-19T09:34:04;19.10;99.90
7572;DHT22;3827;49.928;8.548;2023-09-19T09:36:36;18.90;99.90
7572;DHT22;3827;49.928;8.548;2023-09-19T09:39:03;19.20;99.90
7572;DHT22;3827;49.928;8.548;2023-09-19T09:41:42;19.40;99.90
7572;DHT22;3827;49.928;8.548;2023-09-19T09:44:14;19.50;99.90
7572;DHT22;3827;49.928;8.548;2023-09-19T09:46:43;19.20;99.90
7572;DHT22;3827;49.928;8.548;2023-09-19T09:49:27;19.30;99.90
7572;DHT22;3827;49.928;8.548;2023-09-19T09:52:00;19.80;99.90
7572;DHT22;3827;49.928;8.548;2023-09-19T09:54:28;20.00;99.90
7572;DHT22;3827;49.928;8.548;2023-09-19T09:57:02;20.20;99.90
7572;DHT22;3827;49.928;8.548;2023-09-19T09:59:48;19.60;99.90
7572;DHT22;3827;49.928;8.548;2023-09-19T10:02:17;19.80;99.90
7572;DHT22;3827;49.928;8.548;2023-09-19T10:04:50;19.40;99.90
7572;DHT22;3827;49.928;8.548;2023-09-19T10:07:34;19.70;99.90
7572;DHT22;3827;49.928;8.548;2023-09-19T10:10:07;19.20;99.90
7572;DHT22;3827;49.928;8.548;2023-09-19T10:12:44;19.30;99.90
7572;DHT22;3827;49.928;8.548;2023-09-19T10:15:16;20.00;99.90
7572;DHT22;3827;49.928;8.548;2023-09-19T10:17:46;20.00;99.90
7572;DHT22;3827;49.928;8.548;2023-09-19T10:20:13;20.10;99.90
7572;DHT22;3827;49.928;8.548;2023-09-19T10:22:59;20.20;99.90
7572;DHT22;3827;49.928;8.548;2023-09-19T10:25:27;20.30;99.90
7572;DHT22;3827;49.928;8.548;2023-09-19T10:27:56;20.50;99.90
7572;DHT22;3827;49.928;8.548;2023-09-19T10:30:27;20.60;99.90
7572;DHT22;3827;49.928;8.548;2023-09-19T10:33:00;20.60;99.90
7572;DHT22;3827;49.928;8.548;2023-09-19T10:35:27;20.50;99.90
7572;DHT22;3827;49.928;8.548;2023-09-19T10:37:57;21.50;99.90
7572;DHT22;3827;49.928;8.548;2023-09-19T10:40:24;21.30;99.90
7572;DHT22;3827;49.928;8.548;2023-09-19T10:43:03;21.50;99.90
7572;DHT22;3827;49.928;8.548;2023-09-19T10:45:33;21.10;99.90
7572;DHT22;3827;49.928;8.548;2023-09-19T10:48:01;20.80;99.90
7572;DHT22;3827;49.928;8.548;2023-09-19T10:50:33;20.80;99.90
7572;DHT22;3827;49.928;8.548;2023-09-19T10:53:04;20.90;99.90
7572;DHT22;3827;49.928;8.548;2023-09-19T10:55:34;21.90;99.90
7572;DHT22;3827;49.928;8.548;2023-09-19T10:58:02;22.40;99.90
7572;DHT22;3827;49.928;8.548;2023-09-19T11:00:52;22.50;99.90
7572;DHT22;3827;49.928;8.548;2023-09-19T11:03:20;22.90;99.90
7572;DHT22;3827;49.928;8.548;2023-09-19T11:06:10;22.50;99.90
7572;DHT22;3827;49.928;8.548;2023-09-19T11:08:52;21.40;99.90
7572;DHT22;3827;49.928;8.548;2023-09-19T11:11:42;21.70;99.90
7572;DHT22;3827;49.928;8.548;2023-09-19T11:20:24;21.70;99.90
7572;DHT22;3827;49.928;8.548;2023-09-19T11:23:23;22.30;99.90
7572;DHT22;3827;49.928;8.548;2023-09-19T11:25:54;22.80;99.90
7572;DHT22;3827;49.928;8.548;2023-09-19T11:28:30;23.00;99.90
7572;DHT22;3827;49.928;8.548;2023-09-19T11:30:58;23.30;99.90
7572;DHT22;3827;49.928;8.548;2023-09-19T11:33:26;23.00;99.90
7572;DHT22;3827;49.928;8.548;2023-09-19T11:36:01;22.80;99.90
7572;DHT22;3827;49.928;8.548;2023-09-19T11:38:59;22.50;99.90
7572;DHT22;3827;49.928;8.548;2023-09-19T11:41:38;21.80;99.90
7572;DHT22;3827;49.928;8.548;2023-09-19T11:44:32;21.50;99.90
7572;DHT22;3827;49.928;8.548;2023-09-19T11:47:05;22.00;99.90
7572;DHT22;3827;49.928;8.548;2023-09-19T11:49:32;21.90;99.90
7572;DHT22;3827;49.928;8.548;2023-09-19T11:52:01;22.30;99.90
7572;DHT22;3827;49.928;8.548;2023-09-19T11:54:31;22.60;99.90
7572;DHT22;3827;49.928;8.548;2023-09-19T11:56:59;22.50;99.90
7572;DHT22;3827;49.928;8.548;2023-09-19T11:59:27;22.70;99.90
7572;DHT22;3827;49.928;8.548;2023-09-19T12:01:55;22.50;99.90
7572;DHT22;3827;49.928;8.548;2023-09-19T12:04:37;22.50;99.90
7572;DHT22;3827;49.928;8.548;2023-09-19T12:07:07;22.20;99.90
7572;DHT22;3827;49.928;8.548;2023-09-19T12:09:39;22.30;99.90
7572;DHT22;3827;49.928;8.548;2023-09-19T12:12:09;22.10;99.90
7572;DHT22;3827;49.928;8.548;2023-09-19T12:14:38;22.10;99.90
7572;DHT22;3827;49.928;8.548;2023-09-19T12:17:07;22.50;99.90
7572;DHT22;3827;49.928;8.548;2023-09-19T12:19:34;22.90;99.90
7572;DHT22;3827;49.928;8.548;2023-09-19T12:22:02;23.10;99.90
7572;DHT22;3827;49.928;8.548;2023-09-19T12:24:32;23.20;99.90
7572;DHT22;3827;49.928;8.548;2023-09-19T12:27:02;23.50;99.90
7572;DHT22;3827;49.928;8.548;2023-09-19T12:29:31;23.40;99.90
7572;DHT22;3827;49.928;8.548;2023-09-19T12:32:00;23.40;99.90
7572;DHT22;3827;49.928;8.548;2023-09-19T12:34:30;23.40;99.90
7572;DHT22;3827;49.928;8.548;2023-09-19T12:37:07;23.40;99.90
7572;DHT22;3827;49.928;8.548;2023-09-19T12:39:48;23.30;99.90
7572;DHT22;3827;49.928;8.548;2023-09-19T12:42:17;23.50;99.90
7572;DHT22;3827;49.928;8.548;2023-09-19T12:44:45;23.10;99.90
7572;DHT22;3827;49.928;8.548;2023-09-19T12:47:14;23.50;99.90
7572;DHT22;3827;49.928;8.548;2023-09-19T12:50:11;23.50;99.90
7572;DHT22;3827;49.928;8.548;2023-09-19T12:52:43;23.80;99.90
7572;DHT22;3827;49.928;8.548;2023-09-19T12:55:27;23.90;99.90
7572;DHT22;3827;49.928;8.548;2023-09-19T12:58:11;23.40;99.90
7572;DHT22;3827;49.928;8.548;2023-09-19T13:00:39;23.60;99.90
7572;DHT22;3827;49.928;8.548;2023-09-19T13:03:17;24.00;99.90
7572;DHT22;3827;49.928;8.548;2023-09-19T13:05:54;24.00;99.90
7572;DHT22;3827;49.928;8.548;2023-09-19T13:08:24;24.10;99.90
7572;DHT22;3827;49.928;8.548;2023-09-19T13:11:10;24.20;99.90
7572;DHT22;3827;49.928;8.548;2023-09-19T13:13:39;23.20;99.90
7572;DHT22;3827;49.928;8.548;2023-09-19T13:16:07;22.40;99.90
7572;DHT22;3827;49.928;8.548;2023-09-19T13:18:44;22.10;99.90
7572;DHT22;3827;49.928;8.548;2023-09-19T13:21:12;22.70;99.90
7572;DHT22;3827;49.928;8.548;2023-09-19T13:23:50;22.90;99.90
7572;DHT22;3827;49.928;8.548;2023-09-19T13:26:18;22.80;99.90
7572;DHT22;3827;49.928;8.548;2023-09-19T13:28:45;22.80;99.90
7572;DHT22;3827;49.928;8.548;2023-09-19T13:31:13;23.20;99.90
7572;DHT22;3827;49.928;8.548;2023-09-19T13:33:43;23.40;99.90
7572;DHT22;3827;49.928;8.548;2023-09-19T13:36:10;23.40;99.90
7572;DHT22;3827;49.928;8.548;2023-09-19T13:38:38;23.60;99.90
7572;DHT22;3827;49.928;8.548;2023-09-19T13:41:06;23.40;99.90
7572;DHT22;3827;49.928;8.548;2023-09-19T13:43:34;23.20;99.90
7572;DHT22;3827;49.928;8.548;2023-09-19T13:46:01;23.00;99.90
7572;DHT22;3827;49.928;8.548;2023-09-19T13:48:28;23.20;99.90
7572;DHT22;3827;49.928;8.548;2023-09-19T13:50:55;23.30;99.90
7572;DHT22;3827;49.928;8.548;2023-09-19T13:53:22;23.50;99.90
7572;DHT22;3827;49.928;8.548;2023-09-19T13:55:49;23.50;99.90
7572;DHT22;3827;49.928;8.548;2023-09-19T13:58:16;23.40;99.90
7572;DHT22;3827;49.928;8.548;2023-09-19T14:00:44;23.20;99.90
7572;DHT22;3827;49.928;8.548;2023-09-19T14:03:11;23.10;99.90
7572;DHT22;3827;49.928;8.548;2023-09-19T14:05:38;22.70;99.90
7572;DHT22;3827;49.928;8.548;2023-09-19T14:08:05;22.40;99.90
7572;DHT22;3827;49.928;8.548;2023-09-19T14:10:32;22.50;99.90
7572;DHT22;3827;49.928;8.548;2023-09-19T14:13:00;22.50;99.90
7572;DHT22;3827;49.928;8.548;2023-09-19T14:15:27;22.60;99.90
7572;DHT22;3827;49.928;8.548;2023-09-19T14:17:58;22.50;99.90
7572;DHT22;3827;49.928;8.548;2023-09-19T14:20:26;22.50;99.90
7572;DHT22;3827;49.928;8.548;2023-09-19T14:22:53;22.60;99.90
7572;DHT22;3827;49.928;8.548;2023-09-19T14:25:20;22.80;99.90
7572;DHT22;3827;49.928;8.548;2023-09-19T14:27:47;22.70;99.90
7572;DHT22;3827;49.928;8.548;2023-09-19T14:30:14;22.50;99.90
7572;DHT22;3827;49.928;8.548;2023-09-19T14:32:41;22.30;99.90
7572;DHT22;3827;49.928;8.548;2023-09-19T14:35:09;22.40;99.90
7572;DHT22;3827;49.928;8.548;2023-09-19T14:37:36;22.20;99.90
7572;DHT22;3827;49.928;8.548;2023-09-19T14:40:06;22.30;99.90
7572;DHT22;3827;49.928;8.548;2023-09-19T14:42:35;22.40;99.90
7572;DHT22;3827;49.928;8.548;2023-09-19T14:45:04;22.70;99.90
7572;DHT22;3827;49.928;8.548;2023-09-19T14:47:32;23.00;99.90
7572;DHT22;3827;49.928;8.548;2023-09-19T14:49:59;22.90;99.90
7572;DHT22;3827;49.928;8.548;2023-09-19T14:52:27;23.00;99.90
7572;DHT22;3827;49.928;8.548;2023-09-19T14:54:54;23.20;99.90
7572;DHT22;3827;49.928;8.548;2023-09-19T14:57:21;23.00;99.90
7572;DHT22;3827;49.928;8.548;2023-09-19T14:59:50;22.80;99.90
7572;DHT22;3827;49.928;8.548;2023-09-19T15:02:17;22.20;99.90
7572;DHT22;3827;49.928;8.548;2023-09-19T15:04:44;22.20;99.90
7572;DHT22;3827;49.928;8.548;2023-09-19T15:07:12;22.30;99.90
7572;DHT22;3827;49.928;8.548;2023-09-19T15:09:41;22.50;99.90
7572;DHT22;3827;49.928;8.548;2023-09-19T15:12:09;22.40;99.90
7572;DHT22;3827;49.928;8.548;2023-09-19T15:14:37;22.70;99.90
7572;DHT22;3827;49.928;8.548;2023-09-19T15:17:03;22.80;99.90
7572;DHT22;3827;49.928;8.548;2023-09-19T15:19:31;22.50;99.90
7572;DHT22;3827;49.928;8.548;2023-09-19T15:21:57;22.30;99.90
7572;DHT22;3827;49.928;8.548;2023-09-19T15:24:25;22.40;99.90
7572;DHT22;3827;49.928;8.548;2023-09-19T15:26:54;22.60;99.90
7572;DHT22;3827;49.928;8.548;2023-09-19T15:29:21;22.70;99.90
7572;DHT22;3827;49.928;8.548;2023-09-19T15:31:48;22.70;99.90
7572;DHT22;3827;49.928;8.548;2023-09-19T15:34:15;22.90;99.90
7572;DHT22;3827;49.928;8.548;2023-09-19T15:36:42;22.80;99.90
7572;DHT22;3827;49.928;8.548;2023-09-19T15:39:10;22.70;99.90
7572;DHT22;3827;49.928;8.548;2023-09-19T15:41:39;22.40;99.90
7572;DHT22;3827;49.928;8.548;2023-09-19T15:44:13;22.30;99.90
7572;DHT22;3827;49.928;8.548;2023-09-19T15:46:41;22.30;99.90
7572;DHT22;3827;49.928;8.548;2023-09-19T15:49:08;22.40;99.90
7572;DHT22;3827;49.928;8.548;2023-09-19T15:51:35;22.50;99.90
7572;DHT22;3827;49.928;8.548;2023-09-19T15:54:08;22.50;99.90
7572;DHT22;3827;49.928;8.548;2023-09-19T15:56:35;22.60;99.90
7572;DHT22;3827;49.928;8.548;2023-09-19T15:59:05;22.60;99.90
7572;DHT22;3827;49.928;8.548;2023-09-19T16:01:34;22.50;99.90
7572;DHT22;3827;49.928;8.548;2023-09-19T16:04:04;22.50;99.90
7572;DHT22;3827;49.928;8.548;2023-09-19T16:06:34;22.40;99.90
7572;DHT22;3827;49.928;8.548;2023-09-19T16:09:02;22.30;99.90
7572;DHT22;3827;49.928;8.548;2023-09-19T16:11:32;22.10;99.90
7572;DHT22;3827;49.928;8.548;2023-09-19T16:13:59;21.90;99.90
7572;DHT22;3827;49.928;8.548;2023-09-19T16:16:27;21.80;99.90
7572;DHT22;3827;49.928;8.548;2023-09-19T16:18:58;21.70;99.90
7572;DHT22;3827;49.928;8.548;2023-09-19T16:21:27;21.80;99.90
7572;DHT22;3827;49.928;8.548;2023-09-19T16:23:55;21.70;99.90